sensor_id;sensor_type;location;lat;lon;timestamp;P1;durP1;ratioP1;P2;durP2;ratioP2
59970;SDS011;45825;45.434;9.116;2023-05-13T00:02:14;5.22;;;1.75;;
59970;SDS011;45825;45.434;9.116;2023-05-13T00:04:39;3.72;;;1.95;;
59970;SDS011;45825;45.434;9.116;2023-05-13T00:07:05;3.55;;;1.70;;
59970;SDS011;45825;45.434;9.116;2023-05-13T00:09:30;2.70;;;1.60;;
59970;SDS011;45825;45.434;9.116;2023-05-13T00:11:55;3.70;;;1.80;;
59970;SDS011;45825;45.434;9.116;2023-05-13T00:14:21;4.65;;;1.80;;
59970;SDS011;45825;45.434;9.116;2023-05-13T00:16:46;5.22;;;1.77;;
59970;SDS011;45825;45.434;9.116;2023-05-13T00:19:11;3.33;;;1.63;;
59970;SDS011;45825;45.434;9.116;2023-05-13T00:21:37;2.95;;;1.90;;
59970;SDS011;45825;45.434;9.116;2023-05-13T00:24:02;4.70;;;2.00;;
59970;SDS011;45825;45.434;9.116;2023-05-13T00:26:28;4.25;;;1.95;;
59970;SDS011;45825;45.434;9.116;2023-05-13T00:28:53;3.95;;;2.00;;
59970;SDS011;45825;45.434;9.116;2023-05-13T00:31:19;3.67;;;1.90;;
59970;SDS011;45825;45.434;9.116;2023-05-13T00:33:44;3.72;;;1.80;;
59970;SDS011;45825;45.434;9.116;2023-05-13T00:36:09;2.88;;;1.70;;
59970;SDS011;45825;45.434;9.116;2023-05-13T00:38:36;3.90;;;1.80;;
59970;SDS011;45825;45.434;9.116;2023-05-13T00:41:01;3.95;;;2.10;;
59970;SDS011;45825;45.434;9.116;2023-05-13T00:43:27;3.42;;;1.90;;
59970;SDS011;45825;45.434;9.116;2023-05-13T00:45:53;4.15;;;1.80;;
59970;SDS011;45825;45.434;9.116;2023-05-13T00:48:18;4.60;;;1.80;;
59970;SDS011;45825;45.434;9.116;2023-05-13T00:50:43;4.35;;;1.77;;
59970;SDS011;45825;45.434;9.116;2023-05-13T00:53:09;3.58;;;1.80;;
59970;SDS011;45825;45.434;9.116;2023-05-13T00:55:39;5.35;;;1.88;;
59970;SDS011;45825;45.434;9.116;2023-05-13T00:58:06;3.13;;;1.80;;
59970;SDS011;45825;45.434;9.116;2023-05-13T01:00:32;2.78;;;1.88;;
59970;SDS011;45825;45.434;9.116;2023-05-13T01:05:39;3.33;;;1.70;;
59970;SDS011;45825;45.434;9.116;2023-05-13T01:13:41;4.35;;;2.30;;
59970;SDS011;45825;45.434;9.116;2023-05-13T01:17:12;4.32;;;2.25;;
59970;SDS011;45825;45.434;9.116;2023-05-13T01:22:03;4.32;;;2.35;;
59970;SDS011;45825;45.434;9.116;2023-05-13T01:24:29;4.07;;;2.22;;
59970;SDS011;45825;45.434;9.116;2023-05-13T01:26:54;4.10;;;2.33;;
59970;SDS011;45825;45.434;9.116;2023-05-13T01:29:20;4.53;;;2.28;;
59970;SDS011;45825;45.434;9.116;2023-05-13T01:31:45;3.83;;;1.98;;
59970;SDS011;45825;45.434;9.116;2023-05-13T01:34:13;6.28;;;2.35;;
59970;SDS011;45825;45.434;9.116;2023-05-13T01:36:39;4.85;;;2.25;;
59970;SDS011;45825;45.434;9.116;2023-05-13T01:39:05;4.78;;;2.35;;
59970;SDS011;45825;45.434;9.116;2023-05-13T01:41:32;4.90;;;2.53;;
59970;SDS011;45825;45.434;9.116;2023-05-13T01:43:59;6.15;;;2.50;;
59970;SDS011;45825;45.434;9.116;2023-05-13T01:46:24;5.80;;;2.30;;
59970;SDS011;45825;45.434;9.116;2023-05-13T01:48:49;5.45;;;2.20;;
59970;SDS011;45825;45.434;9.116;2023-05-13T01:51:15;3.97;;;2.40;;
59970;SDS011;45825;45.434;9.116;2023-05-13T01:53:40;4.78;;;2.50;;
59970;SDS011;45825;45.434;9.116;2023-05-13T01:56:07;4.78;;;2.42;;
59970;SDS011;45825;45.434;9.116;2023-05-13T01:58:34;4.05;;;2.42;;
59970;SDS011;45825;45.434;9.116;2023-05-13T02:00:59;4.88;;;2.03;;
59970;SDS011;45825;45.434;9.116;2023-05-13T02:03:24;4.47;;;2.40;;
59970;SDS011;45825;45.434;9.116;2023-05-13T02:05:49;4.10;;;2.60;;
59970;SDS011;45825;45.434;9.116;2023-05-13T02:08:15;5.28;;;2.70;;
59970;SDS011;45825;45.434;9.116;2023-05-13T02:10:40;5.60;;;2.88;;
59970;SDS011;45825;45.434;9.116;2023-05-13T02:13:05;4.55;;;2.53;;
59970;SDS011;45825;45.434;9.116;2023-05-13T02:15:31;6.70;;;2.80;;
59970;SDS011;45825;45.434;9.116;2023-05-13T02:17:56;4.13;;;2.50;;
59970;SDS011;45825;45.434;9.116;2023-05-13T02:20:21;6.22;;;2.78;;
59970;SDS011;45825;45.434;9.116;2023-05-13T02:22:47;6.00;;;2.58;;
59970;SDS011;45825;45.434;9.116;2023-05-13T02:25:12;5.72;;;2.80;;
59970;SDS011;45825;45.434;9.116;2023-05-13T02:27:37;5.50;;;2.67;;
59970;SDS011;45825;45.434;9.116;2023-05-13T02:30:03;5.78;;;2.75;;
59970;SDS011;45825;45.434;9.116;2023-05-13T02:32:28;6.65;;;2.85;;
59970;SDS011;45825;45.434;9.116;2023-05-13T02:34:54;7.60;;;2.88;;
59970;SDS011;45825;45.434;9.116;2023-05-13T02:37:19;5.38;;;2.85;;
59970;SDS011;45825;45.434;9.116;2023-05-13T02:39:44;6.28;;;2.55;;
59970;SDS011;45825;45.434;9.116;2023-05-13T02:42:09;5.65;;;2.83;;
59970;SDS011;45825;45.434;9.116;2023-05-13T02:44:35;5.35;;;2.78;;
59970;SDS011;45825;45.434;9.116;2023-05-13T02:47:00;6.82;;;3.10;;
59970;SDS011;45825;45.434;9.116;2023-05-13T02:49:25;5.82;;;2.97;;
59970;SDS011;45825;45.434;9.116;2023-05-13T02:51:51;6.30;;;2.80;;
59970;SDS011;45825;45.434;9.116;2023-05-13T02:54:16;6.38;;;2.90;;
59970;SDS011;45825;45.434;9.116;2023-05-13T02:56:41;6.45;;;2.75;;
59970;SDS011;45825;45.434;9.116;2023-05-13T02:59:06;4.68;;;2.85;;
59970;SDS011;45825;45.434;9.116;2023-05-13T03:01:32;5.38;;;2.60;;
59970;SDS011;45825;45.434;9.116;2023-05-13T03:03:57;6.90;;;3.22;;
59970;SDS011;45825;45.434;9.116;2023-05-13T03:06:22;4.60;;;2.55;;
59970;SDS011;45825;45.434;9.116;2023-05-13T03:08:48;5.35;;;2.80;;
59970;SDS011;45825;45.434;9.116;2023-05-13T03:11:13;5.38;;;2.78;;
59970;SDS011;45825;45.434;9.116;2023-05-13T03:13:38;5.75;;;2.40;;
59970;SDS011;45825;45.434;9.116;2023-05-13T03:16:03;5.15;;;2.45;;
59970;SDS011;45825;45.434;9.116;2023-05-13T03:18:29;5.70;;;2.92;;
59970;SDS011;45825;45.434;9.116;2023-05-13T03:20:56;6.63;;;2.72;;
59970;SDS011;45825;45.434;9.116;2023-05-13T03:23:21;6.45;;;2.22;;
59970;SDS011;45825;45.434;9.116;2023-05-13T03:25:47;4.90;;;2.70;;
59970;SDS011;45825;45.434;9.116;2023-05-13T03:28:12;6.70;;;2.92;;
59970;SDS011;45825;45.434;9.116;2023-05-13T03:30:37;5.50;;;2.53;;
59970;SDS011;45825;45.434;9.116;2023-05-13T03:33:03;5.95;;;2.85;;
59970;SDS011;45825;45.434;9.116;2023-05-13T03:35:28;6.65;;;2.70;;
59970;SDS011;45825;45.434;9.116;2023-05-13T03:37:53;6.28;;;3.13;;
59970;SDS011;45825;45.434;9.116;2023-05-13T03:40:19;6.40;;;3.13;;
59970;SDS011;45825;45.434;9.116;2023-05-13T03:42:44;5.88;;;3.10;;
59970;SDS011;45825;45.434;9.116;2023-05-13T03:45:09;7.45;;;3.92;;
59970;SDS011;45825;45.434;9.116;2023-05-13T03:47:35;6.72;;;3.58;;
59970;SDS011;45825;45.434;9.116;2023-05-13T03:50:03;5.05;;;3.13;;
59970;SDS011;45825;45.434;9.116;2023-05-13T03:52:28;7.07;;;3.50;;
59970;SDS011;45825;45.434;9.116;2023-05-13T03:54:54;7.65;;;3.25;;
59970;SDS011;45825;45.434;9.116;2023-05-13T03:57:19;6.47;;;3.33;;
59970;SDS011;45825;45.434;9.116;2023-05-13T03:59:44;5.38;;;3.30;;
59970;SDS011;45825;45.434;9.116;2023-05-13T04:02:10;6.15;;;3.38;;
59970;SDS011;45825;45.434;9.116;2023-05-13T04:04:35;6.13;;;3.35;;
59970;SDS011;45825;45.434;9.116;2023-05-13T04:07:00;5.90;;;2.97;;
59970;SDS011;45825;45.434;9.116;2023-05-13T04:09:25;6.22;;;3.20;;
59970;SDS011;45825;45.434;9.116;2023-05-13T04:11:51;4.72;;;2.75;;
59970;SDS011;45825;45.434;9.116;2023-05-13T04:14:16;5.63;;;2.90;;
59970;SDS011;45825;45.434;9.116;2023-05-13T04:16:42;5.30;;;2.70;;
59970;SDS011;45825;45.434;9.116;2023-05-13T04:19:07;4.90;;;2.60;;
59970;SDS011;45825;45.434;9.116;2023-05-13T04:21:32;4.85;;;2.53;;
59970;SDS011;45825;45.434;9.116;2023-05-13T04:23:58;4.82;;;2.53;;
59970;SDS011;45825;45.434;9.116;2023-05-13T04:26:23;4.57;;;2.67;;
59970;SDS011;45825;45.434;9.116;2023-05-13T04:28:49;5.57;;;2.67;;
59970;SDS011;45825;45.434;9.116;2023-05-13T04:31:14;7.18;;;2.70;;
59970;SDS011;45825;45.434;9.116;2023-05-13T04:33:40;6.40;;;2.70;;
59970;SDS011;45825;45.434;9.116;2023-05-13T04:36:05;5.78;;;2.90;;
59970;SDS011;45825;45.434;9.116;2023-05-13T04:38:30;6.22;;;3.25;;
59970;SDS011;45825;45.434;9.116;2023-05-13T04:40:56;6.95;;;3.00;;
59970;SDS011;45825;45.434;9.116;2023-05-13T04:43:21;5.00;;;2.60;;
59970;SDS011;45825;45.434;9.116;2023-05-13T04:45:47;5.85;;;3.10;;
59970;SDS011;45825;45.434;9.116;2023-05-13T04:48:13;4.30;;;2.45;;
59970;SDS011;45825;45.434;9.116;2023-05-13T04:50:38;7.22;;;3.25;;
59970;SDS011;45825;45.434;9.116;2023-05-13T04:53:08;5.95;;;3.10;;
59970;SDS011;45825;45.434;9.116;2023-05-13T04:55:33;5.50;;;3.00;;
59970;SDS011;45825;45.434;9.116;2023-05-13T04:57:59;5.45;;;3.05;;
59970;SDS011;45825;45.434;9.116;2023-05-13T05:00:24;6.97;;;3.45;;
59970;SDS011;45825;45.434;9.116;2023-05-13T05:02:49;7.90;;;3.85;;
59970;SDS011;45825;45.434;9.116;2023-05-13T05:05:14;8.30;;;3.58;;
59970;SDS011;45825;45.434;9.116;2023-05-13T05:07:40;6.38;;;3.80;;
59970;SDS011;45825;45.434;9.116;2023-05-13T05:10:06;7.40;;;4.05;;
59970;SDS011;45825;45.434;9.116;2023-05-13T05:12:32;6.90;;;3.63;;
59970;SDS011;45825;45.434;9.116;2023-05-13T05:14:57;9.05;;;3.78;;
59970;SDS011;45825;45.434;9.116;2023-05-13T05:17:23;6.05;;;3.97;;
59970;SDS011;45825;45.434;9.116;2023-05-13T05:19:48;7.43;;;3.72;;
59970;SDS011;45825;45.434;9.116;2023-05-13T05:22:13;6.53;;;4.20;;
59970;SDS011;45825;45.434;9.116;2023-05-13T05:24:39;7.50;;;4.53;;
59970;SDS011;45825;45.434;9.116;2023-05-13T05:27:04;7.82;;;4.40;;
59970;SDS011;45825;45.434;9.116;2023-05-13T05:29:30;7.13;;;4.45;;
59970;SDS011;45825;45.434;9.116;2023-05-13T05:31:55;6.03;;;4.10;;
59970;SDS011;45825;45.434;9.116;2023-05-13T05:34:20;7.07;;;4.82;;
59970;SDS011;45825;45.434;9.116;2023-05-13T05:36:45;7.88;;;4.97;;
59970;SDS011;45825;45.434;9.116;2023-05-13T05:39:11;8.20;;;5.45;;
59970;SDS011;45825;45.434;9.116;2023-05-13T05:41:36;7.32;;;5.05;;
59970;SDS011;45825;45.434;9.116;2023-05-13T05:44:02;7.65;;;5.50;;
59970;SDS011;45825;45.434;9.116;2023-05-13T05:46:30;8.02;;;5.22;;
59970;SDS011;45825;45.434;9.116;2023-05-13T05:48:55;7.53;;;4.85;;
59970;SDS011;45825;45.434;9.116;2023-05-13T05:51:21;8.10;;;4.95;;
59970;SDS011;45825;45.434;9.116;2023-05-13T05:53:46;7.80;;;4.40;;
59970;SDS011;45825;45.434;9.116;2023-05-13T05:56:11;6.97;;;4.50;;
59970;SDS011;45825;45.434;9.116;2023-05-13T05:58:36;7.57;;;4.57;;
59970;SDS011;45825;45.434;9.116;2023-05-13T06:01:02;8.02;;;4.55;;
59970;SDS011;45825;45.434;9.116;2023-05-13T06:03:27;7.47;;;4.82;;
59970;SDS011;45825;45.434;9.116;2023-05-13T06:05:53;7.38;;;4.88;;
59970;SDS011;45825;45.434;9.116;2023-05-13T06:08:18;8.73;;;5.93;;
59970;SDS011;45825;45.434;9.116;2023-05-13T06:10:43;8.30;;;5.57;;
59970;SDS011;45825;45.434;9.116;2023-05-13T06:13:09;9.43;;;5.85;;
59970;SDS011;45825;45.434;9.116;2023-05-13T06:15:35;10.05;;;6.43;;
59970;SDS011;45825;45.434;9.116;2023-05-13T06:18:03;10.68;;;6.95;;
59970;SDS011;45825;45.434;9.116;2023-05-13T06:20:29;9.90;;;6.95;;
59970;SDS011;45825;45.434;9.116;2023-05-13T06:22:55;9.13;;;6.70;;
59970;SDS011;45825;45.434;9.116;2023-05-13T06:25:20;10.93;;;7.97;;
59970;SDS011;45825;45.434;9.116;2023-05-13T06:27:46;9.93;;;7.70;;
59970;SDS011;45825;45.434;9.116;2023-05-13T06:30:11;9.50;;;7.25;;
59970;SDS011;45825;45.434;9.116;2023-05-13T06:32:37;9.63;;;7.13;;
59970;SDS011;45825;45.434;9.116;2023-05-13T06:35:02;11.93;;;7.80;;
59970;SDS011;45825;45.434;9.116;2023-05-13T06:37:27;9.57;;;7.30;;
59970;SDS011;45825;45.434;9.116;2023-05-13T06:39:53;10.88;;;8.65;;
59970;SDS011;45825;45.434;9.116;2023-05-13T06:42:18;12.57;;;9.25;;
59970;SDS011;45825;45.434;9.116;2023-05-13T06:44:43;11.30;;;8.88;;
59970;SDS011;45825;45.434;9.116;2023-05-13T06:47:08;11.73;;;9.90;;
59970;SDS011;45825;45.434;9.116;2023-05-13T06:49:38;12.68;;;10.27;;
59970;SDS011;45825;45.434;9.116;2023-05-13T06:52:03;14.77;;;10.02;;
59970;SDS011;45825;45.434;9.116;2023-05-13T06:54:29;13.60;;;9.95;;
59970;SDS011;45825;45.434;9.116;2023-05-13T06:56:54;12.07;;;9.43;;
59970;SDS011;45825;45.434;9.116;2023-05-13T06:59:20;12.30;;;9.57;;
59970;SDS011;45825;45.434;9.116;2023-05-13T07:01:46;12.38;;;9.77;;
59970;SDS011;45825;45.434;9.116;2023-05-13T07:04:11;12.73;;;9.52;;
59970;SDS011;45825;45.434;9.116;2023-05-13T07:06:36;13.15;;;9.00;;
59970;SDS011;45825;45.434;9.116;2023-05-13T07:09:02;12.05;;;9.07;;
59970;SDS011;45825;45.434;9.116;2023-05-13T07:11:27;12.93;;;9.90;;
59970;SDS011;45825;45.434;9.116;2023-05-13T07:13:53;12.00;;;10.07;;
59970;SDS011;45825;45.434;9.116;2023-05-13T07:16:18;15.60;;;9.68;;
59970;SDS011;45825;45.434;9.116;2023-05-13T07:18:43;13.73;;;10.68;;
59970;SDS011;45825;45.434;9.116;2023-05-13T07:21:09;14.40;;;10.98;;
59970;SDS011;45825;45.434;9.116;2023-05-13T07:23:34;14.40;;;11.20;;
59970;SDS011;45825;45.434;9.116;2023-05-13T07:25:59;15.48;;;11.25;;
59970;SDS011;45825;45.434;9.116;2023-05-13T07:28:25;15.13;;;11.70;;
59970;SDS011;45825;45.434;9.116;2023-05-13T07:30:51;17.25;;;12.43;;
59970;SDS011;45825;45.434;9.116;2023-05-13T07:33:17;13.57;;;11.15;;
59970;SDS011;45825;45.434;9.116;2023-05-13T07:35:43;14.65;;;10.88;;
59970;SDS011;45825;45.434;9.116;2023-05-13T07:38:08;13.15;;;11.00;;
59970;SDS011;45825;45.434;9.116;2023-05-13T07:40:35;15.00;;;10.55;;
59970;SDS011;45825;45.434;9.116;2023-05-13T07:43:00;14.38;;;10.80;;
59970;SDS011;45825;45.434;9.116;2023-05-13T07:45:26;15.55;;;11.13;;
59970;SDS011;45825;45.434;9.116;2023-05-13T07:47:51;16.60;;;11.27;;
59970;SDS011;45825;45.434;9.116;2023-05-13T07:50:17;14.38;;;10.95;;
59970;SDS011;45825;45.434;9.116;2023-05-13T07:52:42;13.68;;;10.55;;
59970;SDS011;45825;45.434;9.116;2023-05-13T07:55:08;12.43;;;9.00;;
59970;SDS011;45825;45.434;9.116;2023-05-13T07:57:34;10.98;;;7.82;;
59970;SDS011;45825;45.434;9.116;2023-05-13T08:00:00;15.80;;;7.07;;
59970;SDS011;45825;45.434;9.116;2023-05-13T08:02:25;11.60;;;6.95;;
59970;SDS011;45825;45.434;9.116;2023-05-13T08:04:51;11.13;;;7.60;;
59970;SDS011;45825;45.434;9.116;2023-05-13T08:07:16;11.70;;;7.20;;
59970;SDS011;45825;45.434;9.116;2023-05-13T08:09:41;11.98;;;6.60;;
59970;SDS011;45825;45.434;9.116;2023-05-13T08:12:07;10.48;;;7.15;;
59970;SDS011;45825;45.434;9.116;2023-05-13T08:14:32;12.45;;;7.50;;
59970;SDS011;45825;45.434;9.116;2023-05-13T08:16:57;15.48;;;7.63;;
59970;SDS011;45825;45.434;9.116;2023-05-13T08:19:23;13.65;;;8.23;;
59970;SDS011;45825;45.434;9.116;2023-05-13T08:21:48;13.32;;;7.85;;
59970;SDS011;45825;45.434;9.116;2023-05-13T08:24:14;13.55;;;8.32;;
59970;SDS011;45825;45.434;9.116;2023-05-13T08:26:39;12.65;;;7.95;;
59970;SDS011;45825;45.434;9.116;2023-05-13T08:29:04;12.77;;;7.80;;
59970;SDS011;45825;45.434;9.116;2023-05-13T08:31:29;12.15;;;8.15;;
59970;SDS011;45825;45.434;9.116;2023-05-13T08:33:56;10.63;;;7.40;;
59970;SDS011;45825;45.434;9.116;2023-05-13T08:36:21;11.15;;;7.30;;
59970;SDS011;45825;45.434;9.116;2023-05-13T08:38:47;11.32;;;7.60;;
59970;SDS011;45825;45.434;9.116;2023-05-13T08:41:12;11.85;;;7.85;;
59970;SDS011;45825;45.434;9.116;2023-05-13T08:43:39;12.57;;;8.38;;
59970;SDS011;45825;45.434;9.116;2023-05-13T08:46:05;12.52;;;7.90;;
59970;SDS011;45825;45.434;9.116;2023-05-13T08:48:36;12.63;;;7.88;;
59970;SDS011;45825;45.434;9.116;2023-05-13T08:51:03;13.95;;;8.90;;
59970;SDS011;45825;45.434;9.116;2023-05-13T08:53:29;13.10;;;8.40;;
59970;SDS011;45825;45.434;9.116;2023-05-13T08:55:55;12.88;;;8.40;;
59970;SDS011;45825;45.434;9.116;2023-05-13T08:58:21;14.25;;;8.57;;
59970;SDS011;45825;45.434;9.116;2023-05-13T09:00:47;13.05;;;8.48;;
59970;SDS011;45825;45.434;9.116;2023-05-13T09:03:13;13.57;;;9.40;;
59970;SDS011;45825;45.434;9.116;2023-05-13T09:05:40;12.90;;;8.80;;
59970;SDS011;45825;45.434;9.116;2023-05-13T09:08:07;13.07;;;9.25;;
59970;SDS011;45825;45.434;9.116;2023-05-13T09:10:33;12.73;;;8.77;;
59970;SDS011;45825;45.434;9.116;2023-05-13T09:13:00;11.15;;;7.82;;
59970;SDS011;45825;45.434;9.116;2023-05-13T09:15:26;11.45;;;8.40;;
59970;SDS011;45825;45.434;9.116;2023-05-13T09:17:53;12.70;;;9.00;;
59970;SDS011;45825;45.434;9.116;2023-05-13T09:20:19;10.13;;;7.63;;
59970;SDS011;45825;45.434;9.116;2023-05-13T09:22:46;12.43;;;8.13;;
59970;SDS011;45825;45.434;9.116;2023-05-13T09:25:13;12.23;;;8.60;;
59970;SDS011;45825;45.434;9.116;2023-05-13T09:27:41;9.57;;;6.45;;
59970;SDS011;45825;45.434;9.116;2023-05-13T09:30:14;10.00;;;7.05;;
59970;SDS011;45825;45.434;9.116;2023-05-13T09:32:40;13.40;;;7.68;;
59970;SDS011;45825;45.434;9.116;2023-05-13T09:35:10;10.77;;;7.32;;
59970;SDS011;45825;45.434;9.116;2023-05-13T09:37:41;10.32;;;7.65;;
59970;SDS011;45825;45.434;9.116;2023-05-13T09:40:11;11.60;;;8.35;;
59970;SDS011;45825;45.434;9.116;2023-05-13T09:42:41;12.25;;;7.10;;
59970;SDS011;45825;45.434;9.116;2023-05-13T09:45:14;10.65;;;8.43;;
59970;SDS011;45825;45.434;9.116;2023-05-13T09:47:40;11.80;;;8.48;;
59970;SDS011;45825;45.434;9.116;2023-05-13T09:50:06;10.63;;;7.88;;
59970;SDS011;45825;45.434;9.116;2023-05-13T09:52:33;12.52;;;8.38;;
59970;SDS011;45825;45.434;9.116;2023-05-13T09:55:00;11.35;;;8.00;;
59970;SDS011;45825;45.434;9.116;2023-05-13T09:57:29;9.38;;;6.53;;
59970;SDS011;45825;45.434;9.116;2023-05-13T09:59:58;13.63;;;7.47;;
59970;SDS011;45825;45.434;9.116;2023-05-13T10:02:25;11.18;;;7.93;;
59970;SDS011;45825;45.434;9.116;2023-05-13T10:04:52;11.30;;;7.38;;
59970;SDS011;45825;45.434;9.116;2023-05-13T10:07:19;10.63;;;6.93;;
59970;SDS011;45825;45.434;9.116;2023-05-13T10:09:48;8.77;;;6.68;;
59970;SDS011;45825;45.434;9.116;2023-05-13T10:12:16;11.98;;;7.68;;
59970;SDS011;45825;45.434;9.116;2023-05-13T10:14:49;11.02;;;8.18;;
59970;SDS011;45825;45.434;9.116;2023-05-13T10:17:16;10.65;;;6.90;;
59970;SDS011;45825;45.434;9.116;2023-05-13T10:19:43;10.30;;;7.25;;
59970;SDS011;45825;45.434;9.116;2023-05-13T10:22:09;11.32;;;8.02;;
59970;SDS011;45825;45.434;9.116;2023-05-13T10:24:36;10.68;;;6.93;;
59970;SDS011;45825;45.434;9.116;2023-05-13T10:27:02;9.23;;;6.57;;
59970;SDS011;45825;45.434;9.116;2023-05-13T10:29:30;9.77;;;7.00;;
59970;SDS011;45825;45.434;9.116;2023-05-13T10:31:57;9.35;;;6.75;;
59970;SDS011;45825;45.434;9.116;2023-05-13T10:34:23;11.23;;;7.43;;
59970;SDS011;45825;45.434;9.116;2023-05-13T10:44:53;8.82;;;6.75;;
59970;SDS011;45825;45.434;9.116;2023-05-13T10:47:19;8.77;;;5.97;;
59970;SDS011;45825;45.434;9.116;2023-05-13T10:49:54;8.20;;;5.70;;
59970;SDS011;45825;45.434;9.116;2023-05-13T10:52:19;9.05;;;5.43;;
59970;SDS011;45825;45.434;9.116;2023-05-13T10:54:59;9.55;;;5.65;;
59970;SDS011;45825;45.434;9.116;2023-05-13T10:57:34;8.77;;;5.32;;
59970;SDS011;45825;45.434;9.116;2023-05-13T11:00:14;8.68;;;6.30;;
59970;SDS011;45825;45.434;9.116;2023-05-13T11:02:42;8.52;;;6.38;;
59970;SDS011;45825;45.434;9.116;2023-05-13T11:05:08;10.95;;;6.18;;
59970;SDS011;45825;45.434;9.116;2023-05-13T11:07:37;9.35;;;6.05;;
59970;SDS011;45825;45.434;9.116;2023-05-13T11:10:03;12.43;;;6.30;;
59970;SDS011;45825;45.434;9.116;2023-05-13T11:15:47;10.75;;;5.22;;
59970;SDS011;45825;45.434;9.116;2023-05-13T11:18:14;9.85;;;6.75;;
59970;SDS011;45825;45.434;9.116;2023-05-13T11:20:40;8.25;;;5.65;;
59970;SDS011;45825;45.434;9.116;2023-05-13T11:23:15;9.05;;;5.60;;
59970;SDS011;45825;45.434;9.116;2023-05-13T11:25:42;10.25;;;5.93;;
59970;SDS011;45825;45.434;9.116;2023-05-13T11:28:08;8.57;;;5.10;;
59970;SDS011;45825;45.434;9.116;2023-05-13T11:30:33;8.32;;;4.55;;
59970;SDS011;45825;45.434;9.116;2023-05-13T11:32:59;7.97;;;4.28;;
59970;SDS011;45825;45.434;9.116;2023-05-13T11:37:56;6.68;;;3.65;;
59970;SDS011;45825;45.434;9.116;2023-05-13T11:40:23;6.32;;;4.40;;
59970;SDS011;45825;45.434;9.116;2023-05-13T11:42:49;8.18;;;5.20;;
59970;SDS011;45825;45.434;9.116;2023-05-13T11:45:20;7.40;;;5.28;;
59970;SDS011;45825;45.434;9.116;2023-05-13T11:50:22;7.28;;;4.20;;
59970;SDS011;45825;45.434;9.116;2023-05-13T11:53:00;6.93;;;4.35;;
59970;SDS011;45825;45.434;9.116;2023-05-13T11:55:32;7.70;;;4.65;;
59970;SDS011;45825;45.434;9.116;2023-05-13T11:58:02;7.80;;;4.45;;
59970;SDS011;45825;45.434;9.116;2023-05-13T12:00:28;8.00;;;4.65;;
59970;SDS011;45825;45.434;9.116;2023-05-13T12:02:55;7.18;;;4.03;;
59970;SDS011;45825;45.434;9.116;2023-05-13T12:05:23;6.50;;;3.63;;
59970;SDS011;45825;45.434;9.116;2023-05-13T12:07:49;6.93;;;3.67;;
59970;SDS011;45825;45.434;9.116;2023-05-13T12:10:15;7.72;;;3.53;;
59970;SDS011;45825;45.434;9.116;2023-05-13T12:12:42;14.35;;;6.10;;
59970;SDS011;45825;45.434;9.116;2023-05-13T12:15:10;8.05;;;4.00;;
59970;SDS011;45825;45.434;9.116;2023-05-13T12:17:37;7.00;;;3.70;;
59970;SDS011;45825;45.434;9.116;2023-05-13T12:31:02;5.72;;;2.75;;
59970;SDS011;45825;45.434;9.116;2023-05-13T12:33:39;5.97;;;2.67;;
59970;SDS011;45825;45.434;9.116;2023-05-13T12:36:21;5.43;;;2.95;;
59970;SDS011;45825;45.434;9.116;2023-05-13T12:38:59;5.68;;;2.70;;
59970;SDS011;45825;45.434;9.116;2023-05-13T12:41:36;7.03;;;2.42;;
59970;SDS011;45825;45.434;9.116;2023-05-13T12:46:31;6.05;;;2.50;;
59970;SDS011;45825;45.434;9.116;2023-05-13T12:48:57;4.15;;;2.35;;
59970;SDS011;45825;45.434;9.116;2023-05-13T12:51:24;6.72;;;2.60;;
59970;SDS011;45825;45.434;9.116;2023-05-13T12:53:50;5.32;;;2.20;;
59970;SDS011;45825;45.434;9.116;2023-05-13T12:56:18;5.80;;;2.30;;
59970;SDS011;45825;45.434;9.116;2023-05-13T12:58:43;4.35;;;1.98;;
59970;SDS011;45825;45.434;9.116;2023-05-13T13:01:08;4.32;;;2.05;;
59970;SDS011;45825;45.434;9.116;2023-05-13T13:03:34;7.30;;;2.17;;
59970;SDS011;45825;45.434;9.116;2023-05-13T13:05:59;4.22;;;2.13;;
59970;SDS011;45825;45.434;9.116;2023-05-13T13:08:24;4.38;;;1.90;;
59970;SDS011;45825;45.434;9.116;2023-05-13T13:10:50;2.45;;;1.65;;
59970;SDS011;45825;45.434;9.116;2023-05-13T13:13:15;4.70;;;2.42;;
59970;SDS011;45825;45.434;9.116;2023-05-13T13:15:40;4.68;;;2.30;;
59970;SDS011;45825;45.434;9.116;2023-05-13T13:18:06;5.18;;;2.08;;
59970;SDS011;45825;45.434;9.116;2023-05-13T13:20:31;3.40;;;1.60;;
59970;SDS011;45825;45.434;9.116;2023-05-13T13:22:58;4.65;;;2.08;;
59970;SDS011;45825;45.434;9.116;2023-05-13T13:25:24;4.07;;;2.00;;
59970;SDS011;45825;45.434;9.116;2023-05-13T13:27:50;3.58;;;1.80;;
59970;SDS011;45825;45.434;9.116;2023-05-13T13:30:16;2.97;;;1.60;;
59970;SDS011;45825;45.434;9.116;2023-05-13T13:32:41;3.20;;;1.60;;
59970;SDS011;45825;45.434;9.116;2023-05-13T13:35:06;4.50;;;1.67;;
59970;SDS011;45825;45.434;9.116;2023-05-13T13:37:32;3.22;;;1.38;;
59970;SDS011;45825;45.434;9.116;2023-05-13T13:39:57;5.55;;;2.10;;
59970;SDS011;45825;45.434;9.116;2023-05-13T13:42:23;5.25;;;1.95;;
59970;SDS011;45825;45.434;9.116;2023-05-13T13:44:48;5.38;;;1.70;;
59970;SDS011;45825;45.434;9.116;2023-05-13T13:47:13;4.53;;;1.60;;
59970;SDS011;45825;45.434;9.116;2023-05-13T13:49:39;3.20;;;1.45;;
59970;SDS011;45825;45.434;9.116;2023-05-13T13:52:04;4.70;;;1.80;;
59970;SDS011;45825;45.434;9.116;2023-05-13T13:54:30;4.40;;;1.60;;
59970;SDS011;45825;45.434;9.116;2023-05-13T13:56:55;3.38;;;1.48;;
59970;SDS011;45825;45.434;9.116;2023-05-13T13:59:20;4.50;;;1.48;;
59970;SDS011;45825;45.434;9.116;2023-05-13T14:01:46;3.30;;;1.40;;
59970;SDS011;45825;45.434;9.116;2023-05-13T14:04:14;5.30;;;2.05;;
59970;SDS011;45825;45.434;9.116;2023-05-13T14:06:43;3.80;;;1.58;;
59970;SDS011;45825;45.434;9.116;2023-05-13T14:09:09;3.25;;;1.52;;
59970;SDS011;45825;45.434;9.116;2023-05-13T14:11:34;2.13;;;1.20;;
59970;SDS011;45825;45.434;9.116;2023-05-13T14:14:00;3.97;;;1.20;;
59970;SDS011;45825;45.434;9.116;2023-05-13T14:16:25;5.15;;;1.73;;
59970;SDS011;45825;45.434;9.116;2023-05-13T14:18:50;4.78;;;1.35;;
59970;SDS011;45825;45.434;9.116;2023-05-13T14:21:16;3.42;;;1.58;;
59970;SDS011;45825;45.434;9.116;2023-05-13T14:23:41;2.63;;;1.30;;
59970;SDS011;45825;45.434;9.116;2023-05-13T14:26:07;2.63;;;1.38;;
59970;SDS011;45825;45.434;9.116;2023-05-13T14:28:33;2.78;;;1.27;;
59970;SDS011;45825;45.434;9.116;2023-05-13T14:30:59;3.22;;;1.50;;
59970;SDS011;45825;45.434;9.116;2023-05-13T14:33:24;5.18;;;1.38;;
59970;SDS011;45825;45.434;9.116;2023-05-13T14:35:50;3.45;;;1.25;;
59970;SDS011;45825;45.434;9.116;2023-05-13T14:38:16;4.45;;;1.77;;
59970;SDS011;45825;45.434;9.116;2023-05-13T14:40:42;5.10;;;1.67;;
59970;SDS011;45825;45.434;9.116;2023-05-13T14:43:07;4.57;;;1.77;;
59970;SDS011;45825;45.434;9.116;2023-05-13T14:45:33;3.85;;;1.70;;
59970;SDS011;45825;45.434;9.116;2023-05-13T14:47:59;4.50;;;1.70;;
59970;SDS011;45825;45.434;9.116;2023-05-13T14:50:25;4.53;;;1.67;;
59970;SDS011;45825;45.434;9.116;2023-05-13T14:52:50;3.92;;;1.50;;
59970;SDS011;45825;45.434;9.116;2023-05-13T14:55:16;3.72;;;1.30;;
59970;SDS011;45825;45.434;9.116;2023-05-13T14:57:41;4.05;;;1.38;;
59970;SDS011;45825;45.434;9.116;2023-05-13T15:00:06;5.32;;;1.50;;
59970;SDS011;45825;45.434;9.116;2023-05-13T15:02:32;3.03;;;1.20;;
59970;SDS011;45825;45.434;9.116;2023-05-13T15:04:58;3.63;;;1.10;;
59970;SDS011;45825;45.434;9.116;2023-05-13T15:07:23;4.65;;;1.40;;
59970;SDS011;45825;45.434;9.116;2023-05-13T15:09:49;4.13;;;1.20;;
59970;SDS011;45825;45.434;9.116;2023-05-13T15:12:14;4.18;;;1.40;;
59970;SDS011;45825;45.434;9.116;2023-05-13T15:14:39;5.10;;;1.75;;
59970;SDS011;45825;45.434;9.116;2023-05-13T15:17:05;8.02;;;2.20;;
59970;SDS011;45825;45.434;9.116;2023-05-13T15:19:34;5.03;;;1.90;;